Alum Ridge, Virginia
Current Conditions -  °F | °C
As of 7:15 AM on Sunday 25 Jan 2015 (Local Time) from KBCB Reporting Station
Broken Clouds Broken Clouds  
Wind Chill: -3°   Ceiling: 3500
Heat Index: -1°   Visibility: 10mi
Dew Point: -3°   Wind: 5mph
Humidity: 86%   Direction: 250°WSW
Pressure: 29.88"   Gusts: NA
Location:  36.9207°N, 80.3192°W
Report Text: KBCB 251215Z AUTO 25004KT 10SM BKN035 M01/M03 A2988 RMK AO2 T10071028
Loading
Personal Weather Stations






























Interactive Weather Map New forecast layout! Learn more

10-Day Weather Forecast

Advertisements
Track Severe Weather on mobile